createdAt,value
2019-01-30T00:00:40.916Z,1.40
2019-01-30T00:04:44.348Z,1.30
2019-01-30T00:08:47.775Z,1.20
2019-01-30T00:12:51.178Z,1.20
2019-01-30T00:16:54.608Z,1.20
2019-01-30T00:20:58.034Z,1.10
2019-01-30T00:25:01.467Z,1.20
2019-01-30T00:29:04.996Z,1.10
2019-01-30T00:33:08.412Z,1.20
2019-01-30T00:37:11.911Z,1.10
2019-01-30T00:41:15.359Z,1.20
2019-01-30T00:45:20.333Z,1.20
2019-01-30T00:49:23.776Z,1.20
2019-01-30T00:53:27.180Z,1.30
2019-01-30T00:57:30.683Z,1.30
2019-01-30T01:01:43.348Z,1.40
2019-01-30T01:05:46.775Z,1.40
2019-01-30T01:09:50.194Z,1.40
2019-01-30T01:13:53.631Z,1.50
2019-01-30T01:17:57.068Z,1.50
2019-01-30T01:22:00.542Z,1.50
2019-01-30T01:26:04.052Z,1.50
2019-01-30T01:30:10.567Z,1.50
2019-01-30T01:34:13.985Z,1.60
2019-01-30T01:38:17.419Z,1.60
2019-01-30T01:42:20.850Z,1.60
2019-01-30T01:46:24.279Z,1.70
2019-01-30T01:50:27.714Z,1.70
2019-01-30T01:54:31.137Z,1.70
2019-01-30T01:58:34.567Z,1.70
2019-01-30T02:02:38.003Z,1.70
2019-01-30T02:06:41.456Z,1.70
2019-01-30T02:10:44.912Z,1.70
2019-01-30T02:14:48.388Z,1.70
2019-01-30T02:18:51.820Z,1.70
2019-01-30T02:22:55.321Z,1.70
2019-01-30T02:26:58.752Z,1.80
2019-01-30T02:31:02.345Z,1.70
2019-01-30T02:35:06.508Z,1.70
2019-01-30T02:39:09.948Z,1.70
2019-01-30T02:43:13.375Z,1.70
2019-01-30T02:47:16.816Z,1.80
2019-01-30T02:51:20.229Z,1.80
2019-01-30T02:55:23.728Z,1.70
2019-01-30T02:59:27.162Z,1.60
2019-01-30T03:03:30.596Z,1.70
2019-01-30T03:07:34.023Z,1.70
2019-01-30T03:11:37.450Z,1.60
2019-01-30T03:15:40.884Z,1.50
2019-01-30T03:19:44.311Z,1.50
2019-01-30T03:23:47.751Z,1.40
2019-01-30T03:27:51.250Z,1.40
2019-01-30T03:31:54.693Z,1.50
2019-01-30T03:35:58.179Z,1.50
2019-01-30T03:40:01.615Z,1.50
2019-01-30T03:44:05.043Z,1.50
2019-01-30T03:48:08.459Z,1.40
2019-01-30T03:52:11.898Z,1.40
2019-01-30T03:56:15.415Z,1.50
2019-01-30T04:00:21.096Z,1.50
2019-01-30T04:04:24.523Z,1.50
2019-01-30T04:08:27.949Z,1.50
2019-01-30T04:12:31.388Z,1.40
2019-01-30T04:16:34.828Z,1.50
2019-01-30T04:20:38.266Z,1.60
2019-01-30T04:24:41.739Z,1.50
2019-01-30T04:28:45.155Z,1.50
2019-01-30T04:32:48.659Z,1.50
2019-01-30T04:36:52.103Z,1.50
2019-01-30T04:40:55.613Z,1.50
2019-01-30T04:44:59.038Z,1.50
2019-01-30T04:49:02.464Z,1.50
2019-01-30T04:53:05.892Z,1.50
2019-01-30T04:57:09.333Z,1.50
2019-01-30T05:01:12.844Z,1.50
2019-01-30T05:05:16.269Z,1.60
2019-01-30T05:09:19.709Z,1.70
2019-01-30T05:13:23.134Z,1.80
2019-01-30T05:17:26.565Z,1.80
2019-01-30T05:21:29.987Z,1.80
2019-01-30T05:25:33.398Z,1.70
2019-01-30T05:29:36.855Z,1.70
2019-01-30T05:33:40.297Z,1.80
2019-01-30T05:37:43.736Z,1.80
2019-01-30T05:41:47.196Z,1.80
2019-01-30T05:45:50.607Z,1.80
2019-01-30T05:49:54.042Z,1.80
2019-01-30T05:53:57.540Z,1.90
2019-01-30T05:58:00.984Z,1.90
2019-01-30T06:02:11.892Z,1.90
2019-01-30T06:06:09.628Z,1.90
2019-01-30T06:10:13.215Z,1.90
2019-01-30T06:14:16.652Z,1.90
2019-01-30T06:18:20.087Z,1.90
2019-01-30T06:22:23.532Z,2.00
2019-01-30T06:26:26.985Z,2.00
2019-01-30T06:30:30.411Z,2.00
2019-01-30T06:34:33.939Z,2.00
2019-01-30T06:38:37.381Z,2.00
2019-01-30T06:42:40.811Z,2.10
2019-01-30T06:46:44.253Z,2.10
2019-01-30T06:50:47.710Z,2.10
2019-01-30T06:54:51.144Z,2.20
2019-01-30T06:58:54.657Z,2.10
2019-01-30T07:02:58.151Z,2.10
2019-01-30T07:07:01.575Z,2.10
2019-01-30T07:11:10.716Z,2.10
2019-01-30T07:15:10.311Z,2.10
2019-01-30T07:19:13.745Z,2.20
2019-01-30T07:23:17.159Z,2.20
2019-01-30T07:27:20.609Z,2.30
2019-01-30T07:31:24.107Z,2.30
2019-01-30T07:35:27.623Z,2.30
2019-01-30T07:39:31.148Z,2.40
2019-01-30T07:43:34.567Z,2.40
2019-01-30T07:47:37.995Z,2.30
2019-01-30T07:51:41.466Z,2.40
2019-01-30T07:55:44.903Z,2.40
2019-01-30T07:59:48.320Z,2.50
2019-01-30T08:03:51.764Z,2.40
2019-01-30T08:07:55.271Z,2.50
2019-01-30T08:11:58.715Z,2.50
2019-01-30T08:16:02.153Z,2.50
2019-01-30T08:20:08.650Z,2.50
2019-01-30T08:24:12.527Z,2.50
2019-01-30T08:28:16.544Z,2.50
2019-01-30T08:32:22.276Z,2.50
2019-01-30T08:36:25.440Z,2.50
2019-01-30T08:40:29.004Z,2.50
2019-01-30T08:44:32.442Z,2.50
2019-01-30T08:48:35.872Z,2.50
2019-01-30T08:52:39.307Z,2.50
2019-01-30T08:56:52.315Z,2.60
2019-01-30T09:00:47.896Z,2.60
2019-01-30T09:04:51.332Z,2.60
2019-01-30T09:08:54.764Z,2.70
2019-01-30T09:12:58.469Z,2.80
2019-01-30T09:17:01.909Z,2.90
2019-01-30T09:21:05.424Z,2.90
2019-01-30T09:25:11.979Z,2.90
2019-01-30T09:29:15.452Z,2.90
2019-01-30T09:33:25.595Z,3.00
2019-01-30T09:37:24.111Z,3.00
2019-01-30T09:41:27.650Z,3.00
2019-01-30T09:45:31.151Z,3.00
2019-01-30T09:49:34.613Z,3.00
2019-01-30T09:53:38.083Z,3.10
2019-01-30T09:57:41.515Z,3.10
2019-01-30T10:01:44.949Z,3.10
2019-01-30T10:05:49.352Z,3.10
2019-01-30T10:09:52.787Z,3.10
2019-01-30T10:13:56.219Z,3.10
2019-01-30T10:17:59.630Z,3.20
2019-01-30T10:22:03.172Z,3.30
2019-01-30T10:26:06.603Z,3.30
2019-01-30T10:30:13.258Z,3.30
2019-01-30T10:34:16.685Z,3.40
2019-01-30T10:38:20.115Z,3.40
2019-01-30T10:42:23.551Z,3.60
2019-01-30T10:46:26.986Z,3.60
2019-01-30T10:50:31.928Z,3.80
2019-01-30T10:54:35.367Z,3.80
2019-01-30T10:58:38.999Z,4.10
2019-01-30T11:02:42.435Z,4.20
2019-01-30T11:06:45.882Z,4.30
2019-01-30T11:10:50.978Z,4.40
2019-01-30T11:14:54.470Z,4.50
2019-01-30T11:18:57.894Z,4.50
2019-01-30T11:23:01.328Z,4.60
2019-01-30T11:27:04.768Z,4.70
2019-01-30T11:31:08.186Z,4.80
2019-01-30T11:35:13.715Z,4.80
2019-01-30T11:39:17.194Z,4.90
2019-01-30T11:43:20.635Z,4.90
2019-01-30T11:47:24.143Z,4.80
2019-01-30T11:51:27.597Z,4.90
2019-01-30T11:55:31.100Z,4.90
2019-01-30T11:59:34.537Z,5.00
2019-01-30T12:03:37.962Z,5.00
2019-01-30T12:07:41.532Z,5.00
2019-01-30T12:11:44.990Z,5.10
2019-01-30T12:15:48.462Z,5.20
2019-01-30T12:19:51.932Z,5.30
2019-01-30T12:23:55.366Z,5.40
2019-01-30T12:27:58.813Z,5.30
2019-01-30T12:32:02.256Z,5.40
2019-01-30T12:36:06.114Z,5.40
2019-01-30T12:40:13.086Z,5.50
2019-01-30T12:44:16.521Z,5.50
2019-01-30T12:48:19.937Z,5.50
2019-01-30T12:52:23.366Z,5.50
2019-01-30T12:56:26.828Z,5.50
2019-01-30T13:00:38.486Z,5.60
2019-01-30T13:04:41.906Z,5.60
2019-01-30T13:08:45.326Z,5.60
2019-01-30T13:12:48.816Z,5.70
2019-01-30T13:16:52.260Z,5.70
2019-01-30T13:20:55.708Z,5.60
2019-01-30T13:24:59.135Z,5.60
2019-01-30T13:29:02.742Z,5.70
2019-01-30T13:33:07.727Z,5.70
2019-01-30T13:37:11.151Z,5.70
2019-01-30T13:41:14.585Z,5.80
2019-01-30T13:45:18.552Z,5.90
2019-01-30T13:49:21.979Z,5.90
2019-01-30T13:53:25.466Z,5.90
2019-01-30T13:57:28.882Z,5.80
2019-01-30T14:01:32.310Z,5.80
2019-01-30T14:05:36.307Z,5.90
2019-01-30T14:09:39.735Z,5.90
2019-01-30T14:13:43.162Z,6.00
2019-01-30T14:17:46.613Z,6.10
2019-01-30T14:21:50.103Z,6.10
2019-01-30T14:25:53.537Z,6.10
2019-01-30T14:29:58.333Z,6.00
2019-01-30T14:34:02.240Z,6.00
2019-01-30T14:38:05.937Z,6.00
2019-01-30T14:42:09.399Z,5.90
2019-01-30T14:46:12.853Z,5.90
2019-01-30T14:50:21.618Z,5.90
2019-01-30T14:54:25.077Z,5.90
2019-01-30T14:58:28.575Z,5.80
2019-01-30T15:02:32.034Z,5.60
2019-01-30T15:06:35.500Z,5.60
2019-01-30T15:10:39.073Z,5.50
2019-01-30T15:14:42.532Z,5.50
2019-01-30T15:18:46.055Z,5.30
2019-01-30T15:22:49.576Z,5.30
2019-01-30T15:26:52.983Z,5.30
2019-01-30T15:30:56.405Z,5.30
2019-01-30T15:34:59.864Z,5.30
2019-01-30T15:39:04.831Z,5.20
2019-01-30T15:43:08.368Z,5.20
2019-01-30T15:47:11.772Z,5.10
2019-01-30T15:51:15.199Z,5.10
2019-01-30T15:55:18.699Z,5.10
2019-01-30T15:59:22.203Z,5.00
2019-01-30T16:03:26.210Z,4.90
2019-01-30T16:07:29.684Z,4.80
2019-01-30T16:11:33.107Z,4.90
2019-01-30T16:15:45.851Z,4.80
2019-01-30T16:19:49.492Z,4.70
2019-01-30T16:23:53.315Z,4.70
2019-01-30T16:27:56.707Z,4.70
2019-01-30T16:32:00.136Z,4.80
2019-01-30T16:36:03.640Z,4.80
2019-01-30T16:40:10.148Z,4.80
2019-01-30T16:44:13.803Z,4.70
2019-01-30T16:48:17.233Z,4.60
2019-01-30T16:52:20.667Z,4.60
2019-01-30T16:56:24.110Z,4.60
2019-01-30T17:00:32.719Z,4.50
2019-01-30T17:04:36.132Z,4.50
2019-01-30T17:08:39.569Z,4.60
2019-01-30T17:12:43.431Z,4.50
2019-01-30T17:16:46.850Z,4.40
2019-01-30T17:20:50.281Z,4.40
2019-01-30T17:24:53.699Z,4.40
2019-01-30T17:28:57.115Z,4.30
2019-01-30T17:33:00.712Z,4.20
2019-01-30T17:37:04.199Z,4.10
2019-01-30T17:41:07.893Z,4.10
2019-01-30T17:45:30.809Z,4.00
2019-01-30T17:49:34.252Z,3.90
2019-01-30T17:53:37.683Z,3.90
2019-01-30T17:57:41.118Z,3.80
2019-01-30T18:01:44.674Z,3.90
2019-01-30T18:05:48.215Z,3.90
2019-01-30T18:09:51.647Z,3.90
2019-01-30T18:13:55.098Z,3.90
2019-01-30T18:17:58.515Z,3.90
2019-01-30T18:22:01.928Z,4.00
2019-01-30T18:26:05.437Z,4.00
2019-01-30T18:30:12.223Z,4.10
2019-01-30T18:34:15.663Z,4.00
2019-01-30T18:38:19.156Z,3.90
2019-01-30T18:42:22.569Z,4.00
2019-01-30T18:46:25.989Z,4.00
2019-01-30T18:50:30.478Z,3.90
2019-01-30T18:54:33.900Z,3.90
2019-01-30T18:58:37.337Z,3.90
2019-01-30T19:02:40.768Z,3.90
2019-01-30T19:06:52.011Z,4.00
2019-01-30T19:10:49.429Z,4.10
2019-01-30T19:14:52.855Z,4.00
2019-01-30T19:18:56.306Z,4.00
2019-01-30T19:23:19.667Z,3.90
2019-01-30T19:27:23.168Z,3.90
2019-01-30T19:31:26.609Z,3.90
2019-01-30T19:35:30.033Z,3.90
2019-01-30T19:39:33.461Z,3.90
2019-01-30T19:43:39.284Z,3.90
2019-01-30T19:47:42.731Z,3.90
2019-01-30T19:51:46.158Z,3.90
2019-01-30T19:55:49.587Z,3.80
2019-01-30T19:59:53.007Z,3.80
2019-01-30T20:03:56.492Z,3.70
2019-01-30T20:08:00.001Z,3.70
2019-01-30T20:12:03.573Z,3.80
2019-01-30T20:16:07.101Z,3.60
2019-01-30T20:20:20.982Z,3.60
2019-01-30T20:24:23.358Z,3.50
2019-01-30T20:28:26.789Z,3.40
2019-01-30T20:32:30.231Z,3.50
2019-01-30T20:36:33.666Z,3.60
2019-01-30T20:40:37.092Z,3.60
2019-01-30T20:44:40.558Z,3.50
2019-01-30T20:48:47.183Z,3.50
2019-01-30T20:52:49.144Z,3.50
2019-01-30T20:56:53.467Z,3.40
2019-01-30T21:00:56.893Z,3.40
2019-01-30T21:05:00.316Z,3.40
2019-01-30T21:09:06.351Z,3.30
2019-01-30T21:13:09.844Z,3.40
2019-01-30T21:17:13.272Z,3.40
2019-01-30T21:21:16.674Z,3.40
2019-01-30T21:25:21.551Z,3.30
2019-01-30T21:29:24.992Z,3.30
2019-01-30T21:33:28.479Z,3.30
2019-01-30T21:37:31.885Z,3.30
2019-01-30T21:41:35.316Z,3.30
2019-01-30T21:45:38.751Z,3.30
2019-01-30T21:49:42.179Z,3.20
2019-01-30T21:53:45.621Z,3.10
2019-01-30T21:57:49.096Z,3.10
2019-01-30T22:01:52.533Z,3.10
2019-01-30T22:05:55.946Z,3.10
2019-01-30T22:09:59.380Z,3.00
2019-01-30T22:14:02.914Z,3.00
2019-01-30T22:18:06.471Z,3.00
2019-01-30T22:22:09.965Z,3.00
2019-01-30T22:26:13.400Z,2.90
2019-01-30T22:30:19.283Z,2.90
2019-01-30T22:34:22.716Z,2.90
2019-01-30T22:38:26.131Z,2.90
2019-01-30T22:42:29.560Z,2.90
2019-01-30T22:46:32.995Z,2.80
2019-01-30T22:50:36.420Z,2.70
2019-01-30T22:54:39.855Z,2.80
2019-01-30T22:58:43.291Z,2.80
2019-01-30T23:02:46.788Z,2.80
2019-01-30T23:06:59.020Z,2.80
2019-01-30T23:11:23.747Z,2.80
2019-01-30T23:15:33.071Z,2.80
2019-01-30T23:19:39.552Z,2.70
2019-01-30T23:24:01.234Z,2.80
2019-01-30T23:28:19.914Z,2.70
2019-01-30T23:32:44.169Z,2.70
2019-01-30T23:37:02.455Z,2.70
2019-01-30T23:41:08.953Z,2.70
2019-01-30T23:45:24.280Z,2.70
2019-01-30T23:50:02.647Z,2.70
2019-01-30T23:54:26.912Z,2.60
2019-01-30T23:58:48.415Z,2.60
